createdAt,value
2018-11-12T00:02:22.150Z,10.33
2018-11-12T00:07:25.257Z,10.60
2018-11-12T00:12:28.363Z,10.13
2018-11-12T00:17:31.497Z,10.73
2018-11-12T00:22:34.775Z,10.40
2018-11-12T00:27:38.178Z,10.20
2018-11-12T00:32:41.706Z,10.50
2018-11-12T00:37:45.425Z,9.87
2018-11-12T00:42:48.517Z,10.70
2018-11-12T00:47:51.586Z,10.40
2018-11-12T00:52:54.675Z,10.40
2018-11-12T00:57:57.758Z,10.83
2018-11-12T01:03:00.849Z,10.27
2018-11-12T01:08:04.088Z,11.00
2018-11-12T01:13:07.170Z,11.97
2018-11-12T01:18:10.298Z,11.70
2018-11-12T01:23:13.424Z,10.90
2018-11-12T01:28:16.531Z,10.87
2018-11-12T01:33:19.602Z,11.40
2018-11-12T01:38:22.682Z,11.73
2018-11-12T01:43:25.754Z,11.70
2018-11-12T01:48:28.858Z,11.23
2018-11-12T01:53:31.965Z,11.80
2018-11-12T01:58:35.041Z,11.30
2018-11-12T02:03:38.157Z,11.77
2018-11-12T02:08:41.336Z,11.67
2018-11-12T02:13:44.437Z,12.13
2018-11-12T02:18:47.521Z,12.03
2018-11-12T02:23:50.641Z,12.10
2018-11-12T02:28:53.745Z,11.57
2018-11-12T02:33:56.857Z,12.63
2018-11-12T02:38:59.962Z,12.10
2018-11-12T02:44:03.111Z,12.57
2018-11-12T02:49:06.618Z,11.63
2018-11-12T02:54:09.761Z,11.83
2018-11-12T02:59:12.861Z,11.63
2018-11-12T03:04:16.000Z,12.20
2018-11-12T03:09:19.158Z,12.10
2018-11-12T03:14:23.822Z,11.93
2018-11-12T03:19:26.931Z,11.67
2018-11-12T03:24:30.077Z,13.00
2018-11-12T03:29:33.305Z,12.33
2018-11-12T03:34:36.466Z,11.80
2018-11-12T03:39:39.640Z,12.70
2018-11-12T03:44:42.769Z,12.00
2018-11-12T03:49:45.908Z,13.10
2018-11-12T03:54:49.169Z,12.07
2018-11-12T03:59:52.300Z,12.60
2018-11-12T04:04:55.508Z,12.67
2018-11-12T04:09:58.680Z,13.23
2018-11-12T04:15:01.815Z,12.67
2018-11-12T04:20:05.434Z,11.60
2018-11-12T04:25:09.720Z,11.83
2018-11-12T04:30:14.378Z,10.90
2018-11-12T04:35:17.492Z,12.00
2018-11-12T04:40:20.826Z,11.67
2018-11-12T04:45:24.759Z,11.87
2018-11-12T04:50:28.642Z,12.07
2018-11-12T04:55:31.797Z,12.27
2018-11-12T05:00:34.886Z,11.60
2018-11-12T05:05:38.015Z,12.53
2018-11-12T05:10:41.126Z,12.60
2018-11-12T05:15:44.230Z,12.53
2018-11-12T05:20:47.326Z,13.17
2018-11-12T05:25:50.526Z,12.73
2018-11-12T05:30:53.672Z,12.17
2018-11-12T05:35:56.795Z,11.73
2018-11-12T05:40:59.906Z,12.23
2018-11-12T05:46:03.086Z,11.17
2018-11-12T05:51:06.218Z,11.20
2018-11-12T05:56:09.313Z,12.07
2018-11-12T06:01:15.043Z,11.97
2018-11-12T06:06:18.164Z,12.07
2018-11-12T06:11:22.045Z,11.30
2018-11-12T06:16:25.238Z,11.50
2018-11-12T06:21:28.558Z,10.73
2018-11-12T06:26:31.743Z,11.67
2018-11-12T06:31:34.922Z,11.23
2018-11-12T06:36:38.219Z,11.30
2018-11-12T06:41:41.305Z,11.43
2018-11-12T06:46:44.396Z,11.37
2018-11-12T06:51:47.512Z,12.77
2018-11-12T06:56:50.650Z,11.70
2018-11-12T07:01:53.738Z,11.40
2018-11-12T07:06:56.943Z,11.40
2018-11-12T07:12:00.042Z,11.77
2018-11-12T07:17:03.197Z,13.07
2018-11-12T07:22:06.341Z,12.93
2018-11-12T07:27:09.465Z,12.33
2018-11-12T07:32:13.867Z,11.97
2018-11-12T07:37:17.008Z,11.53
2018-11-12T07:42:20.406Z,11.03
2018-11-12T07:47:23.542Z,11.80
2018-11-12T07:52:26.671Z,13.30
2018-11-12T07:57:29.813Z,12.90
2018-11-12T08:02:33.022Z,12.97
2018-11-12T08:07:36.314Z,12.40
2018-11-12T08:12:39.575Z,13.03
2018-11-12T08:17:43.051Z,12.73
2018-11-12T08:22:47.447Z,12.70
2018-11-12T08:27:50.831Z,12.80
2018-11-12T08:32:55.286Z,11.63
2018-11-12T08:37:58.673Z,12.63
2018-11-12T08:43:01.811Z,12.93
2018-11-12T08:48:05.146Z,12.57
2018-11-12T08:53:08.267Z,11.97
2018-11-12T08:58:12.158Z,12.77
2018-11-12T09:03:14.549Z,13.13
2018-11-12T09:08:17.661Z,11.93
2018-11-12T09:13:20.806Z,11.60
2018-11-12T09:18:23.938Z,13.63
2018-11-12T09:23:27.068Z,12.93
2018-11-12T09:28:30.188Z,13.10
2018-11-12T09:33:33.354Z,12.87
2018-11-12T09:38:36.584Z,13.17
2018-11-12T09:43:39.646Z,12.63
2018-11-12T09:48:42.862Z,12.17
2018-11-12T09:53:46.016Z,12.70
2018-11-12T09:58:49.040Z,12.93
2018-11-12T10:03:53.280Z,13.43
2018-11-12T10:08:57.487Z,12.10
2018-11-12T10:14:01.823Z,11.40
2018-11-12T10:19:01.571Z,12.40
2018-11-12T10:24:04.975Z,12.00
2018-11-12T10:29:09.138Z,11.80
2018-11-12T10:34:12.425Z,10.67
2018-11-12T10:39:15.592Z,10.77
2018-11-12T10:44:18.912Z,10.50
2018-11-12T10:49:22.166Z,9.67
2018-11-12T10:54:25.480Z,9.03
2018-11-12T10:59:28.669Z,9.80
2018-11-12T11:04:31.927Z,8.23
2018-11-12T11:09:35.033Z,8.37
2018-11-12T11:14:38.179Z,8.20
2018-11-12T11:19:41.346Z,7.63
2018-11-12T11:24:44.421Z,8.27
2018-11-12T11:29:47.540Z,9.13
2018-11-12T11:34:50.806Z,8.73
2018-11-12T11:39:53.965Z,8.57
2018-11-12T11:44:57.123Z,9.03
2018-11-12T11:50:00.282Z,8.33
2018-11-12T11:55:03.490Z,9.50
2018-11-12T12:00:09.758Z,9.83
2018-11-12T12:05:13.944Z,9.43
2018-11-12T12:10:17.343Z,9.63
2018-11-12T12:15:21.383Z,9.40
2018-11-12T12:20:25.600Z,8.80
2018-11-12T12:25:28.756Z,8.70
2018-11-12T12:30:32.195Z,9.23
2018-11-12T12:35:35.369Z,9.30
2018-11-12T12:40:38.474Z,8.50
2018-11-12T12:45:41.740Z,8.77
2018-11-12T12:50:44.749Z,9.00
2018-11-12T12:55:47.897Z,9.03
2018-11-12T13:00:51.039Z,8.53
2018-11-12T13:05:54.175Z,8.17
2018-11-12T13:10:57.307Z,8.07
2018-11-12T13:16:00.463Z,8.23
2018-11-12T13:21:03.621Z,7.50
2018-11-12T13:26:06.748Z,7.53
2018-11-12T13:31:09.871Z,7.37
2018-11-12T13:36:13.002Z,7.70
2018-11-12T13:41:16.124Z,9.67
2018-11-12T13:46:19.271Z,7.97
2018-11-12T13:51:22.423Z,8.37
2018-11-12T13:56:25.600Z,8.07
2018-11-12T14:01:28.722Z,8.07
2018-11-12T14:06:31.826Z,8.13
2018-11-12T14:11:34.935Z,8.17
2018-11-12T14:16:38.075Z,8.23
2018-11-12T14:21:41.503Z,8.00
2018-11-12T14:26:44.375Z,8.43
2018-11-12T14:31:48.047Z,8.07
2018-11-12T14:36:51.395Z,8.40
2018-11-12T14:41:54.545Z,9.57
2018-11-12T14:46:58.023Z,9.03
2018-11-12T14:52:16.195Z,8.50
2018-11-12T14:57:19.316Z,9.07
2018-11-12T15:02:46.681Z,8.57
2018-11-12T15:07:50.125Z,17.27
2018-11-12T15:12:53.223Z,9.30
2018-11-12T15:18:03.927Z,19.17
2018-11-12T15:23:07.141Z,9.60
2018-11-12T15:28:10.228Z,11.10
2018-11-12T15:33:14.517Z,9.03
2018-11-12T15:38:17.783Z,10.87
2018-11-12T15:43:31.125Z,9.10
2018-11-12T15:48:34.443Z,9.40
2018-11-12T15:53:37.590Z,8.97
2018-11-12T15:58:41.947Z,9.23
2018-11-12T16:03:45.286Z,10.33
2018-11-12T16:08:48.434Z,9.47
2018-11-12T16:13:52.709Z,10.27
2018-11-12T16:18:55.822Z,9.30
2018-11-12T16:23:59.044Z,9.80
2018-11-12T16:29:02.207Z,9.90
2018-11-12T16:34:05.352Z,10.10
2018-11-12T16:39:09.700Z,9.67
2018-11-12T16:44:12.951Z,10.57
2018-11-12T16:49:16.083Z,9.97
2018-11-12T16:54:19.219Z,10.43
2018-11-12T16:59:22.368Z,10.80
2018-11-12T17:04:31.814Z,10.20
2018-11-12T17:09:34.974Z,10.97
2018-11-12T17:14:38.110Z,11.47
2018-11-12T17:19:41.274Z,12.43
2018-11-12T17:24:44.482Z,11.43
2018-11-12T17:29:47.596Z,13.50
2018-11-12T17:34:50.743Z,11.17
2018-11-12T17:39:53.887Z,9.90
2018-11-12T17:44:57.065Z,10.77
2018-11-12T17:50:00.175Z,10.10
2018-11-12T17:55:03.429Z,10.77
2018-11-12T18:00:19.302Z,9.97
2018-11-12T18:05:22.459Z,10.23
2018-11-12T18:10:26.028Z,11.23
2018-11-12T18:15:29.157Z,10.37
2018-11-12T18:20:32.241Z,10.13
2018-11-12T18:25:35.363Z,10.43
2018-11-12T18:30:38.773Z,9.57
2018-11-12T18:35:41.720Z,10.03
2018-11-12T18:40:44.847Z,9.50
2018-11-12T18:45:52.130Z,9.53
2018-11-12T18:50:55.956Z,9.60
2018-11-12T18:55:59.090Z,9.50
2018-11-12T19:01:02.254Z,9.07
2018-11-12T19:06:25.142Z,9.77
2018-11-12T19:11:28.279Z,10.03
2018-11-12T19:16:31.507Z,9.03
2018-11-12T19:21:34.651Z,9.17
2018-11-12T19:26:37.794Z,9.27
2018-11-12T19:31:41.187Z,8.93
2018-11-12T19:36:44.294Z,9.10
2018-11-12T19:41:47.575Z,9.03
2018-11-12T19:46:50.775Z,8.00
2018-11-12T19:51:54.052Z,8.70
2018-11-12T19:56:58.230Z,8.50
2018-11-12T20:02:13.943Z,8.27
2018-11-12T20:12:52.140Z,8.60
2018-11-12T20:17:56.120Z,8.77
2018-11-12T20:23:02.670Z,8.60
2018-11-12T20:28:05.956Z,8.87
2018-11-12T20:33:09.251Z,9.70
2018-11-12T20:38:12.592Z,8.80
2018-11-12T20:43:15.921Z,8.90
2018-11-12T20:48:19.063Z,8.43
2018-11-12T20:53:22.222Z,8.83
2018-11-12T20:58:25.329Z,7.87
2018-11-12T21:03:28.421Z,8.77
2018-11-12T21:08:31.562Z,9.40
2018-11-12T21:13:34.666Z,8.53
2018-11-12T21:18:37.753Z,8.90
2018-11-12T21:23:40.879Z,8.33
2018-11-12T21:28:43.999Z,9.17
2018-11-12T21:33:47.104Z,8.83
2018-11-12T21:38:50.191Z,9.20
2018-11-12T21:43:53.416Z,8.83
2018-11-12T21:48:56.470Z,9.03
2018-11-12T21:53:59.646Z,8.50
2018-11-12T21:59:02.760Z,8.03
2018-11-12T22:04:05.866Z,8.47
2018-11-12T22:09:10.146Z,8.60
2018-11-12T22:14:13.265Z,8.17
2018-11-12T22:19:16.424Z,7.97
2018-11-12T22:24:19.513Z,8.77
2018-11-12T22:29:22.631Z,8.50
2018-11-12T22:34:25.786Z,8.10
2018-11-12T22:39:28.907Z,8.17
2018-11-12T22:44:32.135Z,8.27
2018-11-12T22:49:35.257Z,8.50
2018-11-12T22:54:38.370Z,8.10
2018-11-12T22:59:47.255Z,7.83
2018-11-12T23:04:50.339Z,7.90
2018-11-12T23:09:53.439Z,8.83
2018-11-12T23:14:56.568Z,9.13
2018-11-12T23:19:59.675Z,8.57
2018-11-12T23:25:02.795Z,8.10
2018-11-12T23:30:07.175Z,8.07
2018-11-12T23:35:25.279Z,9.80
2018-11-12T23:40:28.371Z,8.77
2018-11-12T23:45:31.478Z,9.30
2018-11-12T23:50:34.585Z,10.33
2018-11-12T23:55:37.713Z,11.07
